sensor_id;sensor_type;location;lat;lon;timestamp;noise_LAeq;noise_LA_min;noise_LA_max;noise_LA01;noise_LA95
74496;Laerm;62979;55.720;37.606;2023-05-07T00:01:01;44.06;40.15;48.18;;
74496;Laerm;62979;55.720;37.606;2023-05-07T00:03:28;43.87;40.53;46.95;;
74496;Laerm;62979;55.720;37.606;2023-05-07T00:05:55;43.99;39.74;47.30;;
74496;Laerm;62979;55.720;37.606;2023-05-07T00:08:22;48.79;40.71;60.55;;
74496;Laerm;62979;55.720;37.606;2023-05-07T00:10:48;43.99;39.89;47.52;;
74496;Laerm;62979;55.720;37.606;2023-05-07T00:13:17;43.59;39.95;54.89;;
74496;Laerm;62979;55.720;37.606;2023-05-07T00:15:44;43.50;39.53;47.58;;
74496;Laerm;62979;55.720;37.606;2023-05-07T00:18:10;43.80;40.57;50.51;;
74496;Laerm;62979;55.720;37.606;2023-05-07T00:20:37;43.85;40.22;47.55;;
74496;Laerm;62979;55.720;37.606;2023-05-07T00:23:04;44.18;40.66;48.52;;
74496;Laerm;62979;55.720;37.606;2023-05-07T00:25:31;44.25;39.24;47.70;;
74496;Laerm;62979;55.720;37.606;2023-05-07T00:27:58;44.60;40.63;49.12;;
74496;Laerm;62979;55.720;37.606;2023-05-07T00:30:30;45.31;41.17;51.21;;
74496;Laerm;62979;55.720;37.606;2023-05-07T00:32:57;45.50;40.72;52.73;;
74496;Laerm;62979;55.720;37.606;2023-05-07T00:35:24;48.73;40.39;66.19;;
74496;Laerm;62979;55.720;37.606;2023-05-07T00:37:51;49.75;40.56;64.76;;
74496;Laerm;62979;55.720;37.606;2023-05-07T00:40:18;45.04;40.71;49.97;;
74496;Laerm;62979;55.720;37.606;2023-05-07T00:42:45;45.17;41.12;53.17;;
74496;Laerm;62979;55.720;37.606;2023-05-07T00:45:12;45.58;40.39;56.90;;
74496;Laerm;62979;55.720;37.606;2023-05-07T00:47:41;46.23;40.38;59.37;;
74496;Laerm;62979;55.720;37.606;2023-05-07T00:50:09;44.07;40.08;50.35;;
74496;Laerm;62979;55.720;37.606;2023-05-07T00:52:38;44.08;39.53;48.92;;
74496;Laerm;62979;55.720;37.606;2023-05-07T00:55:07;44.82;40.61;53.97;;
74496;Laerm;62979;55.720;37.606;2023-05-07T00:57:36;45.17;40.32;55.12;;
74496;Laerm;62979;55.720;37.606;2023-05-07T01:00:06;45.99;40.34;57.76;;
74496;Laerm;62979;55.720;37.606;2023-05-07T01:02:34;45.58;39.79;59.70;;
74496;Laerm;62979;55.720;37.606;2023-05-07T01:05:05;46.64;40.31;58.61;;
74496;Laerm;62979;55.720;37.606;2023-05-07T01:07:35;46.33;39.64;59.47;;
74496;Laerm;62979;55.720;37.606;2023-05-07T01:10:04;44.82;39.99;52.37;;
74496;Laerm;62979;55.720;37.606;2023-05-07T01:12:32;46.96;40.89;58.04;;
74496;Laerm;62979;55.720;37.606;2023-05-07T01:15:00;47.04;41.02;62.28;;
74496;Laerm;62979;55.720;37.606;2023-05-07T01:17:27;45.84;41.29;56.86;;
74496;Laerm;62979;55.720;37.606;2023-05-07T01:19:54;45.65;41.42;54.61;;
74496;Laerm;62979;55.720;37.606;2023-05-07T01:22:31;47.61;41.63;55.25;;
74496;Laerm;62979;55.720;37.606;2023-05-07T01:24:59;48.06;41.70;56.93;;
74496;Laerm;62979;55.720;37.606;2023-05-07T01:27:27;46.03;41.48;54.98;;
74496;Laerm;62979;55.720;37.606;2023-05-07T01:29:54;53.57;41.49;68.27;;
74496;Laerm;62979;55.720;37.606;2023-05-07T01:32:28;46.49;41.06;58.45;;
74496;Laerm;62979;55.720;37.606;2023-05-07T01:34:57;48.19;41.01;66.42;;
74496;Laerm;62979;55.720;37.606;2023-05-07T01:37:25;48.29;41.23;60.05;;
74496;Laerm;62979;55.720;37.606;2023-05-07T01:39:54;61.49;42.21;80.62;;
74496;Laerm;62979;55.720;37.606;2023-05-07T01:42:22;51.04;44.29;59.67;;
74496;Laerm;62979;55.720;37.606;2023-05-07T01:44:49;57.39;45.04;75.80;;
74496;Laerm;62979;55.720;37.606;2023-05-07T01:47:16;58.11;40.45;77.82;;
74496;Laerm;62979;55.720;37.606;2023-05-07T01:49:44;47.60;40.40;61.61;;
74496;Laerm;62979;55.720;37.606;2023-05-07T01:52:11;52.26;41.30;71.85;;
74496;Laerm;62979;55.720;37.606;2023-05-07T01:54:38;51.00;39.95;63.90;;
74496;Laerm;62979;55.720;37.606;2023-05-07T01:57:06;54.69;40.93;63.63;;
74496;Laerm;62979;55.720;37.606;2023-05-07T01:59:33;48.30;42.60;55.96;;
74496;Laerm;62979;55.720;37.606;2023-05-07T02:02:00;56.81;43.97;64.27;;
74496;Laerm;62979;55.720;37.606;2023-05-07T02:04:27;49.78;42.31;59.27;;
74496;Laerm;62979;55.720;37.606;2023-05-07T02:06:54;46.98;42.00;62.03;;
74496;Laerm;62979;55.720;37.606;2023-05-07T02:09:21;49.84;41.55;61.53;;
74496;Laerm;62979;55.720;37.606;2023-05-07T02:11:48;48.62;41.55;63.25;;
74496;Laerm;62979;55.720;37.606;2023-05-07T02:14:16;49.58;42.00;64.48;;
74496;Laerm;62979;55.720;37.606;2023-05-07T02:16:43;52.33;42.79;66.44;;
74496;Laerm;62979;55.720;37.606;2023-05-07T02:19:10;48.08;41.95;60.28;;
74496;Laerm;62979;55.720;37.606;2023-05-07T02:21:37;51.52;42.82;64.40;;
74496;Laerm;62979;55.720;37.606;2023-05-07T02:24:04;48.69;42.48;63.52;;
74496;Laerm;62979;55.720;37.606;2023-05-07T02:26:31;47.72;41.92;58.63;;
74496;Laerm;62979;55.720;37.606;2023-05-07T02:28:59;45.86;41.86;56.55;;
74496;Laerm;62979;55.720;37.606;2023-05-07T02:31:27;47.42;41.89;58.12;;
74496;Laerm;62979;55.720;37.606;2023-05-07T02:33:54;47.68;42.50;58.39;;
74496;Laerm;62979;55.720;37.606;2023-05-07T02:36:21;48.18;41.75;59.91;;
74496;Laerm;62979;55.720;37.606;2023-05-07T02:38:48;46.08;42.28;60.12;;
74496;Laerm;62979;55.720;37.606;2023-05-07T02:41:15;51.39;41.32;66.53;;
74496;Laerm;62979;55.720;37.606;2023-05-07T02:43:42;46.02;41.86;59.21;;
74496;Laerm;62979;55.720;37.606;2023-05-07T02:46:09;49.18;41.11;59.82;;
74496;Laerm;62979;55.720;37.606;2023-05-07T02:48:37;45.45;41.56;53.85;;
74496;Laerm;62979;55.720;37.606;2023-05-07T02:51:04;46.26;41.51;56.92;;
74496;Laerm;62979;55.720;37.606;2023-05-07T02:53:32;48.89;41.08;61.22;;
74496;Laerm;62979;55.720;37.606;2023-05-07T02:56:00;48.69;39.94;63.51;;
74496;Laerm;62979;55.720;37.606;2023-05-07T02:58:28;52.45;42.29;64.28;;
74496;Laerm;62979;55.720;37.606;2023-05-07T03:00:55;47.47;41.71;58.91;;
74496;Laerm;62979;55.720;37.606;2023-05-07T03:03:22;47.93;42.15;61.33;;
74496;Laerm;62979;55.720;37.606;2023-05-07T03:05:50;46.84;40.90;61.75;;
74496;Laerm;62979;55.720;37.606;2023-05-07T03:08:17;45.71;39.93;60.99;;
74496;Laerm;62979;55.720;37.606;2023-05-07T03:10:44;51.03;41.13;64.66;;
74496;Laerm;62979;55.720;37.606;2023-05-07T03:13:11;50.58;40.31;66.05;;
74496;Laerm;62979;55.720;37.606;2023-05-07T03:15:38;50.46;41.40;61.13;;
74496;Laerm;62979;55.720;37.606;2023-05-07T03:18:05;46.67;40.62;58.73;;
74496;Laerm;62979;55.720;37.606;2023-05-07T03:20:32;45.85;40.54;61.18;;
74496;Laerm;62979;55.720;37.606;2023-05-07T03:23:00;46.77;41.40;55.92;;
74496;Laerm;62979;55.720;37.606;2023-05-07T03:25:27;45.61;40.85;53.35;;
74496;Laerm;62979;55.720;37.606;2023-05-07T03:27:55;49.59;41.00;65.57;;
74496;Laerm;62979;55.720;37.606;2023-05-07T03:30:23;45.95;40.32;60.94;;
74496;Laerm;62979;55.720;37.606;2023-05-07T03:32:50;46.63;40.77;53.64;;
74496;Laerm;62979;55.720;37.606;2023-05-07T03:35:17;53.21;41.25;65.96;;
74496;Laerm;62979;55.720;37.606;2023-05-07T03:37:43;48.87;41.10;66.01;;
74496;Laerm;62979;55.720;37.606;2023-05-07T03:40:12;46.32;40.21;63.29;;
74496;Laerm;62979;55.720;37.606;2023-05-07T03:42:40;49.88;40.46;62.74;;
74496;Laerm;62979;55.720;37.606;2023-05-07T03:45:08;51.35;42.05;71.55;;
74496;Laerm;62979;55.720;37.606;2023-05-07T03:47:35;48.09;41.07;69.49;;
74496;Laerm;62979;55.720;37.606;2023-05-07T03:50:02;53.18;42.26;63.67;;
74496;Laerm;62979;55.720;37.606;2023-05-07T03:52:29;45.03;40.43;54.74;;
74496;Laerm;62979;55.720;37.606;2023-05-07T03:54:56;50.52;40.09;62.36;;
74496;Laerm;62979;55.720;37.606;2023-05-07T03:57:24;50.82;40.46;61.79;;
74496;Laerm;62979;55.720;37.606;2023-05-07T03:59:51;48.91;40.59;58.16;;
74496;Laerm;62979;55.720;37.606;2023-05-07T04:02:18;51.16;41.22;77.24;;
74496;Laerm;62979;55.720;37.606;2023-05-07T04:04:45;48.26;39.57;61.14;;
74496;Laerm;62979;55.720;37.606;2023-05-07T04:07:12;48.12;40.18;56.05;;
74496;Laerm;62979;55.720;37.606;2023-05-07T04:09:39;47.08;40.37;57.34;;
74496;Laerm;62979;55.720;37.606;2023-05-07T04:12:06;49.94;40.74;62.25;;
74496;Laerm;62979;55.720;37.606;2023-05-07T04:14:34;50.10;42.18;68.11;;
74496;Laerm;62979;55.720;37.606;2023-05-07T04:17:01;48.94;41.62;62.02;;
74496;Laerm;62979;55.720;37.606;2023-05-07T04:19:28;47.25;40.86;60.94;;
74496;Laerm;62979;55.720;37.606;2023-05-07T04:21:55;50.18;40.96;61.93;;
74496;Laerm;62979;55.720;37.606;2023-05-07T04:24:22;55.74;40.79;72.80;;
74496;Laerm;62979;55.720;37.606;2023-05-07T04:26:48;56.62;42.47;70.04;;
74496;Laerm;62979;55.720;37.606;2023-05-07T04:29:16;53.24;43.31;65.30;;
74496;Laerm;62979;55.720;37.606;2023-05-07T04:31:44;57.43;47.78;67.12;;
74496;Laerm;62979;55.720;37.606;2023-05-07T04:34:12;60.30;44.43;75.69;;
74496;Laerm;62979;55.720;37.606;2023-05-07T04:36:39;49.53;42.26;62.14;;
74496;Laerm;62979;55.720;37.606;2023-05-07T04:39:06;50.41;43.55;60.77;;
74496;Laerm;62979;55.720;37.606;2023-05-07T04:41:34;46.56;40.10;61.25;;
74496;Laerm;62979;55.720;37.606;2023-05-07T04:44:02;47.94;41.47;58.84;;
74496;Laerm;62979;55.720;37.606;2023-05-07T04:46:31;52.01;43.03;65.65;;
74496;Laerm;62979;55.720;37.606;2023-05-07T04:48:59;48.08;42.27;60.18;;
74496;Laerm;62979;55.720;37.606;2023-05-07T04:51:26;52.53;41.60;61.00;;
74496;Laerm;62979;55.720;37.606;2023-05-07T04:53:53;50.64;42.40;67.57;;
74496;Laerm;62979;55.720;37.606;2023-05-07T04:56:20;49.72;41.92;61.14;;
74496;Laerm;62979;55.720;37.606;2023-05-07T04:58:47;49.63;41.07;59.08;;
74496;Laerm;62979;55.720;37.606;2023-05-07T05:01:14;48.21;41.88;58.20;;
74496;Laerm;62979;55.720;37.606;2023-05-07T05:03:41;50.85;43.18;61.91;;
74496;Laerm;62979;55.720;37.606;2023-05-07T05:06:11;52.14;43.80;75.21;;
74496;Laerm;62979;55.720;37.606;2023-05-07T05:08:38;56.21;44.02;84.51;;
74496;Laerm;62979;55.720;37.606;2023-05-07T05:11:05;56.53;45.95;73.37;;
74496;Laerm;62979;55.720;37.606;2023-05-07T05:13:32;59.56;46.96;71.21;;
74496;Laerm;62979;55.720;37.606;2023-05-07T05:15:59;56.28;42.69;69.89;;
74496;Laerm;62979;55.720;37.606;2023-05-07T05:18:26;51.38;42.14;68.42;;
74496;Laerm;62979;55.720;37.606;2023-05-07T05:20:52;51.92;41.67;66.18;;
74496;Laerm;62979;55.720;37.606;2023-05-07T05:23:21;46.63;41.44;60.93;;
74496;Laerm;62979;55.720;37.606;2023-05-07T05:25:47;53.17;43.04;63.01;;
74496;Laerm;62979;55.720;37.606;2023-05-07T05:28:14;58.98;43.02;72.35;;
74496;Laerm;62979;55.720;37.606;2023-05-07T05:30:41;51.70;43.45;66.85;;
74496;Laerm;62979;55.720;37.606;2023-05-07T05:33:08;53.06;43.82;65.99;;
74496;Laerm;62979;55.720;37.606;2023-05-07T05:35:35;51.60;44.73;63.27;;
74496;Laerm;62979;55.720;37.606;2023-05-07T05:38:02;53.10;45.13;67.32;;
74496;Laerm;62979;55.720;37.606;2023-05-07T05:40:31;52.44;43.85;63.60;;
74496;Laerm;62979;55.720;37.606;2023-05-07T05:42:59;52.30;44.07;62.45;;
74496;Laerm;62979;55.720;37.606;2023-05-07T05:45:26;52.63;45.14;65.19;;
74496;Laerm;62979;55.720;37.606;2023-05-07T05:47:53;54.48;44.77;63.61;;
74496;Laerm;62979;55.720;37.606;2023-05-07T05:50:19;51.54;43.00;66.54;;
74496;Laerm;62979;55.720;37.606;2023-05-07T05:52:46;53.32;44.70;65.40;;
74496;Laerm;62979;55.720;37.606;2023-05-07T05:55:13;52.66;45.62;69.07;;
74496;Laerm;62979;55.720;37.606;2023-05-07T05:57:42;52.98;46.48;65.68;;
74496;Laerm;62979;55.720;37.606;2023-05-07T06:00:10;54.45;43.79;66.22;;
74496;Laerm;62979;55.720;37.606;2023-05-07T06:02:37;52.13;44.69;61.86;;
74496;Laerm;62979;55.720;37.606;2023-05-07T06:05:05;54.50;44.55;65.28;;
74496;Laerm;62979;55.720;37.606;2023-05-07T06:07:32;53.57;44.88;64.89;;
74496;Laerm;62979;55.720;37.606;2023-05-07T06:10:00;55.26;42.41;73.24;;
74496;Laerm;62979;55.720;37.606;2023-05-07T06:12:27;51.79;43.57;64.84;;
74496;Laerm;62979;55.720;37.606;2023-05-07T06:14:55;52.03;45.27;63.62;;
74496;Laerm;62979;55.720;37.606;2023-05-07T06:17:21;53.37;44.08;63.85;;
74496;Laerm;62979;55.720;37.606;2023-05-07T06:19:48;59.71;43.59;77.78;;
74496;Laerm;62979;55.720;37.606;2023-05-07T06:22:15;53.04;44.01;67.92;;
74496;Laerm;62979;55.720;37.606;2023-05-07T06:24:42;52.99;43.52;60.09;;
74496;Laerm;62979;55.720;37.606;2023-05-07T06:27:09;52.81;45.48;60.54;;
74496;Laerm;62979;55.720;37.606;2023-05-07T06:29:36;51.90;45.01;60.52;;
74496;Laerm;62979;55.720;37.606;2023-05-07T06:32:08;50.21;43.21;57.00;;
74496;Laerm;62979;55.720;37.606;2023-05-07T06:34:35;55.68;46.24;67.12;;
74496;Laerm;62979;55.720;37.606;2023-05-07T06:37:02;60.34;50.35;68.80;;
74496;Laerm;62979;55.720;37.606;2023-05-07T06:39:29;57.89;47.00;69.46;;
74496;Laerm;62979;55.720;37.606;2023-05-07T06:41:56;59.60;47.39;72.20;;
74496;Laerm;62979;55.720;37.606;2023-05-07T06:44:24;60.40;47.13;77.52;;
74496;Laerm;62979;55.720;37.606;2023-05-07T06:46:50;61.26;50.08;70.31;;
74496;Laerm;62979;55.720;37.606;2023-05-07T06:49:19;59.43;50.87;73.04;;
74496;Laerm;62979;55.720;37.606;2023-05-07T06:51:46;59.56;47.49;67.98;;
74496;Laerm;62979;55.720;37.606;2023-05-07T06:54:13;60.01;48.95;68.02;;
74496;Laerm;62979;55.720;37.606;2023-05-07T06:56:40;60.48;47.20;72.78;;
74496;Laerm;62979;55.720;37.606;2023-05-07T06:59:07;59.39;50.40;71.07;;
74496;Laerm;62979;55.720;37.606;2023-05-07T07:01:34;53.64;43.07;63.60;;
74496;Laerm;62979;55.720;37.606;2023-05-07T07:04:01;53.91;42.97;65.45;;
74496;Laerm;62979;55.720;37.606;2023-05-07T07:06:29;47.06;42.91;53.54;;
74496;Laerm;62979;55.720;37.606;2023-05-07T07:08:57;52.03;43.15;59.75;;
74496;Laerm;62979;55.720;37.606;2023-05-07T07:11:24;53.45;45.59;60.91;;
74496;Laerm;62979;55.720;37.606;2023-05-07T07:13:51;56.02;44.42;70.44;;
74496;Laerm;62979;55.720;37.606;2023-05-07T07:16:19;53.94;45.51;63.88;;
74496;Laerm;62979;55.720;37.606;2023-05-07T07:18:46;52.09;42.98;64.51;;
74496;Laerm;62979;55.720;37.606;2023-05-07T07:21:13;51.88;42.07;62.47;;
74496;Laerm;62979;55.720;37.606;2023-05-07T07:23:42;53.78;44.64;68.41;;
74496;Laerm;62979;55.720;37.606;2023-05-07T07:26:09;54.84;46.78;66.32;;
74496;Laerm;62979;55.720;37.606;2023-05-07T07:28:42;54.07;44.41;67.42;;
74496;Laerm;62979;55.720;37.606;2023-05-07T07:31:10;51.73;43.49;62.38;;
74496;Laerm;62979;55.720;37.606;2023-05-07T07:33:37;54.28;46.44;64.15;;
74496;Laerm;62979;55.720;37.606;2023-05-07T07:36:06;56.36;46.95;67.90;;
74496;Laerm;62979;55.720;37.606;2023-05-07T07:38:33;57.28;44.49;65.00;;
74496;Laerm;62979;55.720;37.606;2023-05-07T07:41:02;54.58;45.49;64.42;;
74496;Laerm;62979;55.720;37.606;2023-05-07T07:43:29;56.28;47.55;72.18;;
74496;Laerm;62979;55.720;37.606;2023-05-07T07:45:56;56.75;47.63;68.13;;
74496;Laerm;62979;55.720;37.606;2023-05-07T07:48:22;55.02;46.83;70.99;;
74496;Laerm;62979;55.720;37.606;2023-05-07T07:50:50;61.41;50.02;85.32;;
74496;Laerm;62979;55.720;37.606;2023-05-07T07:53:17;60.83;50.47;75.66;;
74496;Laerm;62979;55.720;37.606;2023-05-07T07:55:44;58.66;47.84;68.74;;
74496;Laerm;62979;55.720;37.606;2023-05-07T07:58:13;57.05;46.27;75.45;;
74496;Laerm;62979;55.720;37.606;2023-05-07T08:00:40;54.29;45.36;75.06;;
74496;Laerm;62979;55.720;37.606;2023-05-07T08:03:09;52.40;43.99;61.46;;
74496;Laerm;62979;55.720;37.606;2023-05-07T08:05:36;52.37;44.92;61.11;;
74496;Laerm;62979;55.720;37.606;2023-05-07T08:08:04;53.35;45.99;69.09;;
74496;Laerm;62979;55.720;37.606;2023-05-07T08:10:32;53.80;45.64;63.84;;
74496;Laerm;62979;55.720;37.606;2023-05-07T08:13:00;52.15;43.45;66.62;;
74496;Laerm;62979;55.720;37.606;2023-05-07T08:15:30;51.53;42.30;64.98;;
74496;Laerm;62979;55.720;37.606;2023-05-07T08:17:58;54.21;44.46;69.00;;
74496;Laerm;62979;55.720;37.606;2023-05-07T08:20:25;56.65;48.47;64.62;;
74496;Laerm;62979;55.720;37.606;2023-05-07T08:22:52;53.67;44.20;64.15;;
74496;Laerm;62979;55.720;37.606;2023-05-07T08:25:19;55.77;44.13;64.65;;
74496;Laerm;62979;55.720;37.606;2023-05-07T08:27:46;50.85;41.96;62.85;;
74496;Laerm;62979;55.720;37.606;2023-05-07T08:30:14;52.18;42.77;63.11;;
74496;Laerm;62979;55.720;37.606;2023-05-07T08:32:42;58.17;45.10;69.61;;
74496;Laerm;62979;55.720;37.606;2023-05-07T08:35:09;60.20;47.91;73.37;;
74496;Laerm;62979;55.720;37.606;2023-05-07T08:37:36;58.51;53.36;71.09;;
74496;Laerm;62979;55.720;37.606;2023-05-07T08:40:05;55.32;45.45;64.56;;
74496;Laerm;62979;55.720;37.606;2023-05-07T08:42:36;54.57;45.41;68.42;;
74496;Laerm;62979;55.720;37.606;2023-05-07T08:45:09;53.69;45.90;67.44;;
74496;Laerm;62979;55.720;37.606;2023-05-07T08:47:43;54.78;46.81;64.56;;
74496;Laerm;62979;55.720;37.606;2023-05-07T08:50:11;52.16;44.17;61.68;;
74496;Laerm;62979;55.720;37.606;2023-05-07T08:52:39;50.53;42.05;61.64;;
74496;Laerm;62979;55.720;37.606;2023-05-07T08:55:08;55.22;44.66;72.86;;
74496;Laerm;62979;55.720;37.606;2023-05-07T08:57:35;53.53;44.33;62.58;;
74496;Laerm;62979;55.720;37.606;2023-05-07T09:00:03;50.78;43.71;61.93;;
74496;Laerm;62979;55.720;37.606;2023-05-07T09:02:30;50.31;42.73;63.22;;
74496;Laerm;62979;55.720;37.606;2023-05-07T09:04:58;56.03;45.32;68.26;;
74496;Laerm;62979;55.720;37.606;2023-05-07T09:07:25;54.25;42.35;67.36;;
74496;Laerm;62979;55.720;37.606;2023-05-07T09:09:52;52.41;43.34;64.31;;
74496;Laerm;62979;55.720;37.606;2023-05-07T09:12:21;53.01;43.58;64.14;;
74496;Laerm;62979;55.720;37.606;2023-05-07T09:14:48;52.92;42.74;64.24;;
74496;Laerm;62979;55.720;37.606;2023-05-07T09:17:15;54.22;44.34;65.35;;
74496;Laerm;62979;55.720;37.606;2023-05-07T09:19:44;52.34;42.28;63.31;;
74496;Laerm;62979;55.720;37.606;2023-05-07T09:22:13;54.22;45.71;70.27;;
74496;Laerm;62979;55.720;37.606;2023-05-07T09:24:40;53.16;43.84;66.25;;
74496;Laerm;62979;55.720;37.606;2023-05-07T09:27:07;53.51;44.47;64.22;;
74496;Laerm;62979;55.720;37.606;2023-05-07T09:29:38;49.64;43.79;67.78;;
74496;Laerm;62979;55.720;37.606;2023-05-07T09:32:07;51.93;43.20;66.30;;
74496;Laerm;62979;55.720;37.606;2023-05-07T09:34:35;54.18;43.16;67.88;;
74496;Laerm;62979;55.720;37.606;2023-05-07T09:37:02;51.99;44.34;62.01;;
74496;Laerm;62979;55.720;37.606;2023-05-07T09:39:40;53.28;42.88;65.70;;
74496;Laerm;62979;55.720;37.606;2023-05-07T09:42:07;53.11;46.35;66.54;;
74496;Laerm;62979;55.720;37.606;2023-05-07T09:44:35;52.12;46.07;61.04;;
74496;Laerm;62979;55.720;37.606;2023-05-07T09:47:05;54.22;44.25;64.59;;
74496;Laerm;62979;55.720;37.606;2023-05-07T09:49:36;52.96;44.30;61.71;;
74496;Laerm;62979;55.720;37.606;2023-05-07T09:52:06;50.89;41.84;60.17;;
74496;Laerm;62979;55.720;37.606;2023-05-07T09:54:35;52.97;42.11;62.88;;
74496;Laerm;62979;55.720;37.606;2023-05-07T09:57:05;50.45;42.42;67.73;;
74496;Laerm;62979;55.720;37.606;2023-05-07T09:59:33;54.80;44.23;71.93;;
74496;Laerm;62979;55.720;37.606;2023-05-07T10:02:01;52.41;44.46;62.90;;
74496;Laerm;62979;55.720;37.606;2023-05-07T10:04:31;53.45;45.11;62.63;;
74496;Laerm;62979;55.720;37.606;2023-05-07T10:06:59;52.62;43.77;60.67;;
74496;Laerm;62979;55.720;37.606;2023-05-07T10:09:27;52.05;43.01;63.44;;
74496;Laerm;62979;55.720;37.606;2023-05-07T10:11:54;50.14;42.95;58.94;;
74496;Laerm;62979;55.720;37.606;2023-05-07T10:14:23;52.07;43.28;60.88;;
74496;Laerm;62979;55.720;37.606;2023-05-07T10:16:52;54.40;43.19;67.48;;
74496;Laerm;62979;55.720;37.606;2023-05-07T10:19:20;52.32;44.96;60.31;;
74496;Laerm;62979;55.720;37.606;2023-05-07T10:21:54;53.41;45.33;61.80;;
74496;Laerm;62979;55.720;37.606;2023-05-07T10:24:28;56.04;45.54;68.36;;
74496;Laerm;62979;55.720;37.606;2023-05-07T10:26:58;52.90;44.89;63.71;;
74496;Laerm;62979;55.720;37.606;2023-05-07T10:29:38;52.59;45.09;62.26;;
74496;Laerm;62979;55.720;37.606;2023-05-07T10:32:37;51.84;44.06;63.92;;
74496;Laerm;62979;55.720;37.606;2023-05-07T10:35:11;54.78;46.86;64.04;;
74496;Laerm;62979;55.720;37.606;2023-05-07T10:37:41;55.75;46.11;73.94;;
74496;Laerm;62979;55.720;37.606;2023-05-07T10:40:11;54.30;47.33;62.28;;
74496;Laerm;62979;55.720;37.606;2023-05-07T10:42:38;53.05;45.43;63.45;;
74496;Laerm;62979;55.720;37.606;2023-05-07T10:45:13;55.93;45.84;74.67;;
74496;Laerm;62979;55.720;37.606;2023-05-07T10:48:07;53.96;45.63;64.89;;
74496;Laerm;62979;55.720;37.606;2023-05-07T10:50:34;54.06;45.82;62.82;;
74496;Laerm;62979;55.720;37.606;2023-05-07T10:53:23;54.70;45.22;67.19;;
74496;Laerm;62979;55.720;37.606;2023-05-07T10:56:24;54.08;44.80;72.73;;
74496;Laerm;62979;55.720;37.606;2023-05-07T10:58:54;52.87;43.10;66.64;;
74496;Laerm;62979;55.720;37.606;2023-05-07T11:01:52;52.52;43.54;73.11;;
74496;Laerm;62979;55.720;37.606;2023-05-07T11:04:20;50.42;44.13;64.08;;
74496;Laerm;62979;55.720;37.606;2023-05-07T11:07:30;50.73;43.17;64.41;;
74496;Laerm;62979;55.720;37.606;2023-05-07T11:10:03;48.31;42.44;55.31;;
74496;Laerm;62979;55.720;37.606;2023-05-07T11:12:53;50.90;44.02;62.28;;
74496;Laerm;62979;55.720;37.606;2023-05-07T11:15:45;52.33;42.58;62.18;;
74496;Laerm;62979;55.720;37.606;2023-05-07T11:18:15;52.81;43.70;62.36;;
74496;Laerm;62979;55.720;37.606;2023-05-07T11:20:52;54.82;48.41;72.02;;
74496;Laerm;62979;55.720;37.606;2023-05-07T11:23:57;54.49;45.88;61.89;;
74496;Laerm;62979;55.720;37.606;2023-05-07T11:26:25;54.58;46.57;62.77;;
74496;Laerm;62979;55.720;37.606;2023-05-07T11:28:52;54.35;46.00;64.99;;
74496;Laerm;62979;55.720;37.606;2023-05-07T11:31:22;55.78;47.56;67.78;;
74496;Laerm;62979;55.720;37.606;2023-05-07T11:33:52;52.70;43.57;61.75;;
74496;Laerm;62979;55.720;37.606;2023-05-07T11:36:21;54.82;46.26;61.39;;
74496;Laerm;62979;55.720;37.606;2023-05-07T11:38:48;54.25;48.10;64.43;;
74496;Laerm;62979;55.720;37.606;2023-05-07T11:41:16;52.04;45.27;63.54;;
74496;Laerm;62979;55.720;37.606;2023-05-07T11:43:59;52.70;45.24;59.72;;
74496;Laerm;62979;55.720;37.606;2023-05-07T11:46:28;53.95;44.80;69.02;;
74496;Laerm;62979;55.720;37.606;2023-05-07T11:48:56;53.64;44.64;64.03;;
74496;Laerm;62979;55.720;37.606;2023-05-07T11:51:25;53.31;45.12;62.26;;
74496;Laerm;62979;55.720;37.606;2023-05-07T11:53:55;51.67;44.05;65.63;;
74496;Laerm;62979;55.720;37.606;2023-05-07T11:56:22;52.20;43.17;61.46;;
74496;Laerm;62979;55.720;37.606;2023-05-07T11:58:50;52.17;41.18;69.22;;
74496;Laerm;62979;55.720;37.606;2023-05-07T12:01:17;51.77;41.80;64.75;;
74496;Laerm;62979;55.720;37.606;2023-05-07T12:03:45;52.18;41.31;62.15;;
74496;Laerm;62979;55.720;37.606;2023-05-07T12:06:16;53.88;47.20;63.10;;
74496;Laerm;62979;55.720;37.606;2023-05-07T12:08:45;51.33;42.95;60.58;;
74496;Laerm;62979;55.720;37.606;2023-05-07T12:11:21;54.47;44.05;68.36;;
74496;Laerm;62979;55.720;37.606;2023-05-07T12:13:48;53.28;43.15;76.19;;
74496;Laerm;62979;55.720;37.606;2023-05-07T12:16:16;53.33;43.90;67.86;;
74496;Laerm;62979;55.720;37.606;2023-05-07T12:18:44;51.72;41.50;60.55;;
74496;Laerm;62979;55.720;37.606;2023-05-07T12:21:12;53.87;41.02;63.79;;
74496;Laerm;62979;55.720;37.606;2023-05-07T12:23:40;52.65;43.09;64.71;;
74496;Laerm;62979;55.720;37.606;2023-05-07T12:26:08;56.55;47.10;67.64;;
74496;Laerm;62979;55.720;37.606;2023-05-07T12:28:39;51.22;45.23;64.07;;
74496;Laerm;62979;55.720;37.606;2023-05-07T12:31:07;52.70;45.24;62.67;;
74496;Laerm;62979;55.720;37.606;2023-05-07T12:33:35;55.44;46.93;84.51;;
74496;Laerm;62979;55.720;37.606;2023-05-07T12:36:06;52.16;43.76;61.68;;
74496;Laerm;62979;55.720;37.606;2023-05-07T12:38:40;52.22;42.71;60.23;;
74496;Laerm;62979;55.720;37.606;2023-05-07T12:41:09;53.53;42.88;66.56;;
74496;Laerm;62979;55.720;37.606;2023-05-07T12:43:37;50.68;41.17;62.04;;
74496;Laerm;62979;55.720;37.606;2023-05-07T12:46:07;51.47;41.08;64.26;;
74496;Laerm;62979;55.720;37.606;2023-05-07T12:48:36;52.79;41.14;77.44;;
74496;Laerm;62979;55.720;37.606;2023-05-07T12:51:06;53.17;43.76;63.97;;
74496;Laerm;62979;55.720;37.606;2023-05-07T12:53:41;52.28;41.54;70.39;;
74496;Laerm;62979;55.720;37.606;2023-05-07T12:56:09;50.90;40.99;63.58;;
74496;Laerm;62979;55.720;37.606;2023-05-07T12:58:36;49.63;41.44;63.56;;
74496;Laerm;62979;55.720;37.606;2023-05-07T13:01:06;52.25;41.79;61.83;;
74496;Laerm;62979;55.720;37.606;2023-05-07T13:03:35;57.44;43.71;70.77;;
74496;Laerm;62979;55.720;37.606;2023-05-07T13:06:05;53.41;42.45;65.08;;
74496;Laerm;62979;55.720;37.606;2023-05-07T13:08:34;52.06;41.64;66.46;;
74496;Laerm;62979;55.720;37.606;2023-05-07T13:11:03;54.31;45.01;66.25;;
74496;Laerm;62979;55.720;37.606;2023-05-07T13:13:31;53.32;44.75;65.70;;
74496;Laerm;62979;55.720;37.606;2023-05-07T13:15:58;55.58;46.80;73.29;;
74496;Laerm;62979;55.720;37.606;2023-05-07T13:18:26;52.37;43.35;68.19;;
74496;Laerm;62979;55.720;37.606;2023-05-07T13:20:53;54.71;47.09;67.03;;
74496;Laerm;62979;55.720;37.606;2023-05-07T13:23:20;52.09;44.43;60.22;;
74496;Laerm;62979;55.720;37.606;2023-05-07T13:25:48;53.45;44.52;62.92;;
74496;Laerm;62979;55.720;37.606;2023-05-07T13:28:17;54.10;45.47;68.40;;
74496;Laerm;62979;55.720;37.606;2023-05-07T13:30:44;51.60;44.72;63.34;;
74496;Laerm;62979;55.720;37.606;2023-05-07T13:33:11;53.00;44.79;63.25;;
74496;Laerm;62979;55.720;37.606;2023-05-07T13:35:39;53.28;45.06;62.66;;
74496;Laerm;62979;55.720;37.606;2023-05-07T13:38:05;53.72;43.68;66.35;;
74496;Laerm;62979;55.720;37.606;2023-05-07T13:40:32;49.70;43.96;59.55;;